Time;durP1;ratioP1;P1;durP2;ratioP2;P2;SDS_P1;SDS_P2;PMS_P1;PMS_P2;Temp;Humidity;BMP_temperature;BMP_pressure;BME280_temperature;BME280_humidity;BME280_pressure;Samples;Min_cycle;Max_cycle;Signal;HPM_P1;HPM_P2
2022/03/16 00:01:55;;;;;;;31.35;18.15;;;;;;;;;;5035312;28;20033;-68
2022/03/16 00:04:25;;;;;;;29.80;17.83;;;;;;;;;;5033670;28;20140;-68
2022/03/16 00:07:01;;;;;;;34.97;19.35;;;;;;;;;;5035046;28;20084;-66
2022/03/16 00:09:33;;;;;;;30.05;17.95;;;;;;;;;;5035199;28;20064;-67
2022/03/16 00:12:05;;;;;;;30.40;18.25;;;;;;;;;;5017118;28;20053;-68
2022/03/16 00:14:58;;;;;;;28.98;18.65;;;;;;;;;;5035268;28;20048;-67
2022/03/16 00:17:29;;;;;;;30.05;18.77;;;;;;;;;;5035099;28;20047;-67
2022/03/16 00:19:58;;;;;;;31.60;17.65;;;;;;;;;;5034712;28;20565;-67
2022/03/16 00:22:28;;;;;;;33.85;18.70;;;;;;;;;;5017040;28;20369;-67
2022/03/16 00:25:01;;;;;;;31.42;18.20;;;;;;;;;;5017202;28;20046;-67
2022/03/16 00:27:30;;;;;;;34.50;20.17;;;;;;;;;;5017021;28;20045;-67
2022/03/16 00:30:01;;;;;;;35.90;19.52;;;;;;;;;;5017198;28;20052;-68
2022/03/16 00:32:33;;;;;;;37.20;20.98;;;;;;;;;;5034756;28;20080;-67
2022/03/16 00:35:02;;;;;;;33.30;20.17;;;;;;;;;;5034943;28;20064;-67
2022/03/16 00:37:35;;;;;;;30.90;19.42;;;;;;;;;;5016784;28;20049;-67
2022/03/16 00:40:13;;;;;;;38.13;20.77;;;;;;;;;;5016312;28;20072;-68
2022/03/16 00:42:41;;;;;;;37.25;20.00;;;;;;;;;;5016458;28;20045;-66
2022/03/16 00:45:33;;;;;;;34.60;19.70;;;;;;;;;;5034558;28;20484;-67
2022/03/16 00:48:00;;;;;;;36.30;20.23;;;;;;;;;;5016506;28;20053;-67
2022/03/16 00:50:32;;;;;;;32.97;19.42;;;;;;;;;;5034365;28;20042;-67
2022/03/16 00:53:02;;;;;;;33.60;20.27;;;;;;;;;;5034693;28;20373;-68
2022/03/16 00:55:33;;;;;;;34.58;19.95;;;;;;;;;;5034322;28;20042;-68
2022/03/16 00:58:02;;;;;;;33.22;20.95;;;;;;;;;;5034400;28;20057;-68
2022/03/16 01:00:55;;;;;;;32.35;19.40;;;;;;;;;;5016547;28;20069;-68
2022/03/16 01:03:23;;;;;;;33.30;19.85;;;;;;;;;;5033982;28;20044;-68
2022/03/16 01:05:56;;;;;;;32.40;20.05;;;;;;;;;;5016218;28;20052;-68
2022/03/16 01:08:23;;;;;;;35.88;20.48;;;;;;;;;;5016682;28;20045;-67
2022/03/16 01:10:53;;;;;;;33.15;19.85;;;;;;;;;;5033960;28;20053;-68
2022/03/16 01:13:25;;;;;;;34.40;20.65;;;;;;;;;;5034125;28;20454;-66
2022/03/16 01:15:53;;;;;;;34.72;20.67;;;;;;;;;;5033850;28;20037;-66
2022/03/16 01:18:23;;;;;;;32.67;20.02;;;;;;;;;;5033972;28;20408;-66
2022/03/16 01:21:06;;;;;;;35.38;20.77;;;;;;;;;;5033914;28;20051;-67
2022/03/16 01:23:35;;;;;;;35.90;19.23;;;;;;;;;;5033814;28;20039;-67
2022/03/16 01:26:27;;;;;;;31.80;18.83;;;;;;;;;;5016072;28;20046;-67
2022/03/16 01:28:57;;;;;;;33.53;18.77;;;;;;;;;;5015881;28;20498;-67
2022/03/16 01:31:24;;;;;;;35.15;21.23;;;;;;;;;;5015431;28;20056;-67
2022/03/16 01:33:52;;;;;;;38.83;22.48;;;;;;;;;;5033920;28;20047;-67
2022/03/16 01:36:21;;;;;;;37.50;21.35;;;;;;;;;;5015233;28;20103;-67
2022/03/16 01:39:14;;;;;;;34.72;19.92;;;;;;;;;;5015899;28;20095;-67
2022/03/16 01:42:07;;;;;;;33.65;19.48;;;;;;;;;;5033500;28;20041;-67
2022/03/16 01:44:41;;;;;;;36.70;21.17;;;;;;;;;;5033571;28;20124;-66
2022/03/16 01:47:09;;;;;;;30.67;17.98;;;;;;;;;;5033596;28;20042;-66
2022/03/16 01:49:44;;;;;;;37.72;21.65;;;;;;;;;;5033437;28;20080;-68
2022/03/16 01:52:20;;;;;;;35.75;21.48;;;;;;;;;;5033412;28;20390;-67
2022/03/16 01:54:48;;;;;;;37.00;22.00;;;;;;;;;;4999438;28;20045;-67
2022/03/16 01:57:40;;;;;;;38.38;21.27;;;;;;;;;;5015504;28;20054;-67
2022/03/16 02:00:10;;;;;;;37.28;21.00;;;;;;;;;;5015237;28;20046;-67
2022/03/16 02:02:44;;;;;;;37.35;21.45;;;;;;;;;;5015267;28;20107;-67
2022/03/16 02:05:13;;;;;;;35.33;19.13;;;;;;;;;;5015521;28;20052;-67
2022/03/16 02:07:44;;;;;;;35.30;19.95;;;;;;;;;;5014987;28;20045;-66
2022/03/16 02:10:17;;;;;;;33.88;20.27;;;;;;;;;;5015365;28;20045;-67
2022/03/16 02:12:47;;;;;;;33.47;18.90;;;;;;;;;;5015357;28;20514;-66
2022/03/16 02:15:17;;;;;;;38.30;19.90;;;;;;;;;;5015231;28;20144;-67
2022/03/16 02:17:45;;;;;;;38.78;22.25;;;;;;;;;;5031580;28;20569;-67
2022/03/16 02:20:13;;;;;;;36.42;22.23;;;;;;;;;;5037340;28;20407;-67
2022/03/16 02:22:59;;;;;;;33.13;20.13;;;;;;;;;;5019257;28;20140;-67
2022/03/16 02:28:01;;;;;;;36.05;20.23;;;;;;;;;;5037145;28;20004;-67
2022/03/16 02:30:33;;;;;;;36.55;20.80;;;;;;;;;;5019291;28;20389;-67
2022/03/16 02:33:06;;;;;;;41.20;21.92;;;;;;;;;;4999568;28;20050;-67
2022/03/16 02:35:37;;;;;;;37.42;21.52;;;;;;;;;;5015837;28;20141;-67
2022/03/16 02:38:08;;;;;;;35.00;21.20;;;;;;;;;;5015926;28;20084;-67
2022/03/16 02:40:41;;;;;;;37.17;21.40;;;;;;;;;;5015940;28;20473;-67
2022/03/16 02:43:12;;;;;;;36.22;21.15;;;;;;;;;;5017067;28;20457;-67
2022/03/16 02:45:40;;;;;;;39.30;22.33;;;;;;;;;;5015652;28;20049;-67
2022/03/16 02:48:08;;;;;;;38.58;21.33;;;;;;;;;;5016672;28;20038;-67
2022/03/16 02:50:43;;;;;;;35.72;21.75;;;;;;;;;;4999370;28;20476;-67
2022/03/16 02:53:11;;;;;;;35.03;21.27;;;;;;;;;;5016785;28;20056;-68
2022/03/16 02:55:50;;;;;;;36.83;21.65;;;;;;;;;;5017457;28;20038;-68
2022/03/16 02:58:21;;;;;;;36.63;21.73;;;;;;;;;;5015433;28;20137;-68
2022/03/16 03:00:51;;;;;;;42.63;20.92;;;;;;;;;;5015742;28;20052;-68
2022/03/16 03:03:25;;;;;;;37.30;20.92;;;;;;;;;;5016808;28;20049;-68
2022/03/16 03:06:17;;;;;;;36.40;20.90;;;;;;;;;;5016649;28;20129;-68
2022/03/16 03:08:48;;;;;;;35.53;20.55;;;;;;;;;;5016747;28;20050;-68
2022/03/16 03:11:18;;;;;;;33.58;19.35;;;;;;;;;;5016573;28;20033;-68
2022/03/16 03:13:47;;;;;;;32.55;18.27;;;;;;;;;;5015106;28;20045;-68
2022/03/16 03:16:20;;;;;;;28.88;16.88;;;;;;;;;;5016732;28;20049;-68
2022/03/16 03:18:50;;;;;;;30.13;17.88;;;;;;;;;;5016293;28;20564;-68
2022/03/16 03:21:21;;;;;;;29.75;17.85;;;;;;;;;;5016026;28;20057;-68
2022/03/16 03:23:53;;;;;;;35.33;18.48;;;;;;;;;;5014830;28;20049;-68
2022/03/16 03:26:24;;;;;;;34.25;17.67;;;;;;;;;;5016501;28;20460;-68
2022/03/16 03:28:57;;;;;;;27.65;17.30;;;;;;;;;;5014832;28;20078;-68
2022/03/16 03:31:24;;;;;;;31.35;17.25;;;;;;;;;;5018282;28;20042;-68
2022/03/16 03:33:57;;;;;;;34.58;18.10;;;;;;;;;;5036036;28;20049;-68
2022/03/16 03:36:36;;;;;;;32.47;18.42;;;;;;;;;;5036058;28;20045;-66
2022/03/16 03:39:29;;;;;;;31.65;18.35;;;;;;;;;;5035476;28;20099;-66
2022/03/16 03:41:58;;;;;;;28.42;16.98;;;;;;;;;;5035548;28;20041;-67
2022/03/16 03:44:31;;;;;;;27.83;16.85;;;;;;;;;;5035859;28;20041;-67
2022/03/16 03:47:00;;;;;;;33.42;18.58;;;;;;;;;;5035752;28;20046;-67
2022/03/16 03:49:34;;;;;;;30.10;17.90;;;;;;;;;;5035438;28;20064;-67
2022/03/16 03:52:27;;;;;;;26.25;16.15;;;;;;;;;;5017829;28;20046;-67
2022/03/16 03:54:59;;;;;;;28.70;16.98;;;;;;;;;;5035625;28;20037;-68
2022/03/16 03:57:28;;;;;;;29.77;17.88;;;;;;;;;;5035142;28;20077;-67
2022/03/16 03:59:57;;;;;;;30.23;17.83;;;;;;;;;;5035230;28;20045;-68
2022/03/16 04:02:31;;;;;;;29.83;17.40;;;;;;;;;;5035542;28;20038;-68
2022/03/16 04:04:59;;;;;;;29.48;17.90;;;;;;;;;;5017375;28;20099;-68
2022/03/16 04:07:30;;;;;;;32.10;17.98;;;;;;;;;;5017065;28;20045;-68
2022/03/16 04:10:05;;;;;;;29.98;18.38;;;;;;;;;;5035488;28;20046;-68
2022/03/16 04:12:37;;;;;;;29.25;16.90;;;;;;;;;;5017384;28;20037;-66
2022/03/16 04:15:30;;;;;;;33.72;18.58;;;;;;;;;;5034899;28;20041;-66
2022/03/16 04:17:59;;;;;;;32.83;18.58;;;;;;;;;;5034884;28;20389;-67
2022/03/16 04:20:32;;;;;;;29.55;17.15;;;;;;;;;;5017261;28;20045;-67
2022/03/16 04:23:00;;;;;;;35.33;19.92;;;;;;;;;;5035012;28;20068;-67
2022/03/16 04:25:37;;;;;;;31.70;17.90;;;;;;;;;;5035280;28;20458;-67
2022/03/16 04:28:09;;;;;;;33.17;18.73;;;;;;;;;;5034660;28;20045;-67
2022/03/16 04:30:40;;;;;;;33.08;18.13;;;;;;;;;;5016904;28;20041;-67
2022/03/16 04:33:13;;;;;;;33.95;19.33;;;;;;;;;;5034349;28;20057;-67
2022/03/16 04:35:53;;;;;;;33.75;19.50;;;;;;;;;;5034565;28;20088;-67
2022/03/16 04:38:20;;;;;;;35.60;19.85;;;;;;;;;;5016717;28;20475;-67
2022/03/16 04:41:02;;;;;;;41.15;23.20;;;;;;;;;;5034202;28;20053;-67
2022/03/16 04:43:34;;;;;;;41.83;22.98;;;;;;;;;;5033797;28;20049;-67
2022/03/16 04:46:08;;;;;;;43.85;23.77;;;;;;;;;;5017339;28;20041;-67
2022/03/16 04:48:39;;;;;;;45.55;22.92;;;;;;;;;;5016432;28;20045;-67
2022/03/16 04:51:16;;;;;;;43.90;23.65;;;;;;;;;;5034527;28;20068;-67
2022/03/16 04:53:47;;;;;;;42.17;24.17;;;;;;;;;;5015737;28;20073;-67
2022/03/16 04:56:15;;;;;;;44.05;23.13;;;;;;;;;;5034117;28;20059;-67
2022/03/16 04:58:46;;;;;;;46.72;24.20;;;;;;;;;;5016473;28;20532;-67
2022/03/16 05:01:16;;;;;;;49.58;22.88;;;;;;;;;;5050075;28;20052;-78
2022/03/16 05:03:45;;;;;;;42.53;22.08;;;;;;;;;;5052541;28;20041;-76
2022/03/16 05:06:18;;;;;;;38.10;22.25;;;;;;;;;;5053975;28;20045;-75
2022/03/16 05:08:47;;;;;;;33.88;20.08;;;;;;;;;;5052790;28;20393;-75
2022/03/16 05:11:15;;;;;;;35.42;21.02;;;;;;;;;;5035744;28;20047;-76
2022/03/16 05:13:44;;;;;;;33.97;19.88;;;;;;;;;;5052665;28;20068;-76
2022/03/16 05:16:14;;;;;;;32.95;19.38;;;;;;;;;;5053924;28;20480;-76
2022/03/16 05:19:07;;;;;;;35.13;18.92;;;;;;;;;;5053457;28;20051;-76
2022/03/16 05:21:37;;;;;;;36.00;20.48;;;;;;;;;;5052226;28;20049;-77
2022/03/16 05:24:07;;;;;;;32.17;19.52;;;;;;;;;;5053417;28;20045;-76
2022/03/16 05:26:38;;;;;;;38.15;21.10;;;;;;;;;;5035583;28;20041;-76
2022/03/16 05:29:07;;;;;;;53.42;28.08;;;;;;;;;;5051987;28;20049;-76
2022/03/16 05:31:34;;;;;;;59.78;31.15;;;;;;;;;;5052315;28;20634;-76
2022/03/16 05:34:06;;;;;;;69.32;31.95;;;;;;;;;;5053217;28;20049;-76
2022/03/16 05:36:35;;;;;;;61.25;30.60;;;;;;;;;;5051920;28;20045;-76
2022/03/16 05:39:04;;;;;;;56.13;29.55;;;;;;;;;;5053048;28;20044;-76
2022/03/16 05:41:31;;;;;;;61.60;31.15;;;;;;;;;;5051951;28;20103;-76
2022/03/16 05:44:03;;;;;;;55.03;29.02;;;;;;;;;;5053317;28;20488;-77
2022/03/16 05:46:36;;;;;;;54.05;26.42;;;;;;;;;;5035562;28;20468;-77
2022/03/16 05:49:09;;;;;;;50.78;24.52;;;;;;;;;;5052145;28;20099;-76
2022/03/16 05:51:49;;;;;;;47.28;25.00;;;;;;;;;;5053523;28;20108;-76
2022/03/16 05:54:44;;;;;;;46.90;23.60;;;;;;;;;;5052343;28;20503;-75
2022/03/16 05:57:39;;;;;;;42.47;22.67;;;;;;;;;;5053152;28;20048;-77
2022/03/16 06:00:14;;;;;;;45.13;24.17;;;;;;;;;;5015326;28;20051;-78
2022/03/16 06:02:48;;;;;;;43.70;22.47;;;;;;;;;;4995787;28;20100;-77
2022/03/16 06:05:16;;;;;;;38.47;20.27;;;;;;;;;;5013548;28;20041;-77
2022/03/16 06:07:48;;;;;;;40.38;21.33;;;;;;;;;;5026419;28;20092;-77
2022/03/16 06:10:20;;;;;;;34.85;19.08;;;;;;;;;;5032990;28;20044;-77
2022/03/16 06:12:51;;;;;;;28.10;18.13;;;;;;;;;;5031317;28;20042;-76
2022/03/16 06:15:21;;;;;;;28.52;17.63;;;;;;;;;;5031697;28;20504;-76
2022/03/16 06:18:13;;;;;;;28.65;17.48;;;;;;;;;;5031912;28;20072;-76
2022/03/16 06:20:46;;;;;;;30.42;18.83;;;;;;;;;;5032817;28;20484;-76
2022/03/16 06:23:14;;;;;;;30.67;18.65;;;;;;;;;;5031581;28;20558;-75
2022/03/16 06:26:06;;;;;;;36.92;20.08;;;;;;;;;;5033107;28;20076;-76
2022/03/16 06:28:39;;;;;;;32.30;18.77;;;;;;;;;;5031775;28;20076;-75
2022/03/16 06:31:14;;;;;;;28.77;17.77;;;;;;;;;;5031822;28;20045;-75
2022/03/16 06:33:42;;;;;;;27.17;18.60;;;;;;;;;;5015223;28;20050;-74
2022/03/16 06:36:28;;;;;;;29.17;19.17;;;;;;;;;;5033085;28;20042;-75
2022/03/16 06:42:17;;;;;;;38.65;23.10;;;;;;;;;;5032489;28;20068;-76
2022/03/16 06:47:54;;;;;;;27.30;18.55;;;;;;;;;;5031042;28;20045;-76
2022/03/16 06:50:58;;;;;;;37.25;23.80;;;;;;;;;;5030443;28;20479;-76
2022/03/16 06:53:27;;;;;;;40.65;25.17;;;;;;;;;;5032503;28;20504;-75
2022/03/16 06:55:58;;;;;;;37.58;23.17;;;;;;;;;;5031404;28;20455;-75
2022/03/16 06:58:26;;;;;;;33.70;21.13;;;;;;;;;;5032547;28;20042;-75
2022/03/16 07:01:19;;;;;;;41.20;21.15;;;;;;;;;;5014327;28;20049;-75
2022/03/16 07:06:43;;;;;;;40.60;20.95;;;;;;;;;;5036640;28;20129;-76
2022/03/16 07:09:11;;;;;;;36.22;21.30;;;;;;;;;;5035881;28;20033;-76
2022/03/16 07:12:14;;;;;;;34.90;20.10;;;;;;;;;;5034934;28;20049;-75
2022/03/16 07:21:18;;;;;;;32.05;19.00;;;;;;;;;;5036397;28;20099;-75
2022/03/16 07:24:09;;;;;;;31.88;19.20;;;;;;;;;;5035986;28;20156;-76
2022/03/16 07:26:37;;;;;;;31.58;20.17;;;;;;;;;;5034912;28;20045;-76
2022/03/16 07:29:05;;;;;;;36.90;22.20;;;;;;;;;;5035921;28;20050;-75
2022/03/16 07:31:32;;;;;;;34.97;20.77;;;;;;;;;;5035596;28;20037;-75
2022/03/16 07:34:00;;;;;;;31.80;20.10;;;;;;;;;;5033870;28;20045;-76
2022/03/16 07:36:31;;;;;;;37.10;22.55;;;;;;;;;;5035957;28;20041;-76
2022/03/16 07:39:11;;;;;;;38.75;22.75;;;;;;;;;;5034819;28;20045;-76
2022/03/16 07:42:04;;;;;;;35.40;21.45;;;;;;;;;;5035712;28;20124;-76
2022/03/16 07:44:36;;;;;;;31.58;19.48;;;;;;;;;;5035188;28;20037;-76
2022/03/16 07:47:05;;;;;;;31.60;18.58;;;;;;;;;;5036057;28;20125;-76
2022/03/16 07:49:32;;;;;;;29.83;19.17;;;;;;;;;;5017717;28;20091;-76
2022/03/16 07:52:17;;;;;;;36.35;21.92;;;;;;;;;;5035658;28;20045;-76
2022/03/16 07:54:45;;;;;;;38.27;22.17;;;;;;;;;;5017767;28;20149;-75
2022/03/16 07:57:12;;;;;;;39.47;23.65;;;;;;;;;;5017372;28;20132;-76
2022/03/16 07:59:47;;;;;;;37.78;22.98;;;;;;;;;;5017404;28;20080;-75
2022/03/16 08:05:37;;;;;;;52.35;24.88;;;;;;;;;;5017422;28;20037;-74
2022/03/16 08:08:31;;;;;;;67.15;31.30;;;;;;;;;;5017802;28;20041;-75
2022/03/16 08:14:17;;;;;;;49.28;26.23;;;;;;;;;;5016983;28;20515;-75
2022/03/16 08:19:54;;;;;;;35.70;20.25;;;;;;;;;;5034877;28;20540;-74
2022/03/16 08:22:29;;;;;;;36.00;21.02;;;;;;;;;;5016358;28;20072;-74
2022/03/16 08:25:00;;;;;;;39.45;23.38;;;;;;;;;;5032988;28;20542;-74
2022/03/16 08:27:42;;;;;;;45.75;26.17;;;;;;;;;;5017009;28;20041;-76
2022/03/16 08:30:10;;;;;;;45.53;24.75;;;;;;;;;;5034623;28;20060;-76
2022/03/16 08:32:38;;;;;;;45.78;25.40;;;;;;;;;;5033974;28;20045;-76
2022/03/16 08:35:12;;;;;;;35.45;21.40;;;;;;;;;;5016488;28;20049;-77
2022/03/16 08:38:05;;;;;;;37.28;20.75;;;;;;;;;;5033148;28;20095;-76
2022/03/16 08:47:11;;;;;;;34.97;22.90;;;;;;;;;;5034640;28;20029;-76
2022/03/16 08:53:18;;;;;;;33.00;19.65;;;;;;;;;;5016614;28;20503;-76
2022/03/16 08:55:45;;;;;;;27.17;17.65;;;;;;;;;;5033819;28;20077;-76
2022/03/16 08:58:17;;;;;;;33.72;20.48;;;;;;;;;;5016156;28;20056;-76
2022/03/16 09:00:53;;;;;;;31.15;18.98;;;;;;;;;;5016387;28;20164;-76
2022/03/16 09:03:23;;;;;;;29.15;19.58;;;;;;;;;;5032868;28;20455;-77
2022/03/16 09:05:54;;;;;;;27.23;18.65;;;;;;;;;;5032281;28;20481;-75
2022/03/16 09:08:31;;;;;;;34.17;20.08;;;;;;;;;;5034238;28;20041;-76
2022/03/16 09:11:02;;;;;;;33.33;20.65;;;;;;;;;;5016943;28;20072;-76
2022/03/16 09:13:36;;;;;;;31.48;20.17;;;;;;;;;;5033827;28;20087;-76
2022/03/16 09:16:29;;;;;;;32.47;19.17;;;;;;;;;;5033702;28;20041;-76
2022/03/16 09:18:57;;;;;;;30.67;20.70;;;;;;;;;;5033849;28;20103;-76
2022/03/16 09:21:30;;;;;;;31.63;20.58;;;;;;;;;;5015894;28;20049;-76
2022/03/16 09:24:00;;;;;;;32.13;19.48;;;;;;;;;;5033888;28;20511;-76
2022/03/16 09:26:32;;;;;;;35.05;22.02;;;;;;;;;;5015730;28;20037;-75
2022/03/16 09:29:08;;;;;;;36.58;22.23;;;;;;;;;;5033796;28;20041;-75
2022/03/16 09:31:36;;;;;;;41.05;22.40;;;;;;;;;;5031951;28;20042;-75
2022/03/16 09:34:32;;;;;;;40.47;24.13;;;;;;;;;;5033517;28;20064;-76
2022/03/16 09:37:03;;;;;;;33.85;21.40;;;;;;;;;;5033627;28;20045;-75
2022/03/16 09:39:42;;;;;;;39.80;22.10;;;;;;;;;;5033759;28;20072;-75
2022/03/16 09:42:15;;;;;;;36.60;21.48;;;;;;;;;;5033540;28;20116;-75
2022/03/16 09:44:47;;;;;;;34.17;21.45;;;;;;;;;;5032474;28;20041;-75
2022/03/16 09:47:15;;;;;;;34.50;21.50;;;;;;;;;;5033586;28;20046;-75
2022/03/16 09:49:56;;;;;;;34.17;21.50;;;;;;;;;;5015281;28;20038;-75
2022/03/16 09:52:48;;;;;;;33.42;20.83;;;;;;;;;;5032206;28;20427;-75
2022/03/16 09:55:17;;;;;;;35.30;21.73;;;;;;;;;;5033571;28;20128;-75
2022/03/16 09:57:45;;;;;;;37.80;23.40;;;;;;;;;;5033754;28;20049;-75
2022/03/16 10:00:25;;;;;;;35.03;22.42;;;;;;;;;;5031365;28;20049;-75
2022/03/16 10:02:54;;;;;;;36.58;21.20;;;;;;;;;;5033384;28;20488;-75
2022/03/16 10:05:22;;;;;;;34.30;22.25;;;;;;;;;;5015157;28;20482;-74
2022/03/16 10:07:54;;;;;;;35.92;21.38;;;;;;;;;;5032933;28;20038;-75
2022/03/16 10:13:29;;;;;;;38.45;21.92;;;;;;;;;;5014928;28;20420;-75
2022/03/16 10:16:21;;;;;;;33.47;21.70;;;;;;;;;;5015369;28;20100;-75
2022/03/16 10:18:55;;;;;;;34.47;22.23;;;;;;;;;;5033065;28;20046;-75
2022/03/16 10:21:30;;;;;;;35.00;21.95;;;;;;;;;;5015087;28;20076;-76
2022/03/16 10:24:02;;;;;;;37.25;23.48;;;;;;;;;;4998966;28;20049;-76
2022/03/16 10:26:35;;;;;;;34.85;23.00;;;;;;;;;;4999267;28;20042;-76
2022/03/16 10:29:04;;;;;;;35.83;22.80;;;;;;;;;;5033150;28;20044;-76
2022/03/16 10:31:35;;;;;;;36.88;22.35;;;;;;;;;;5015259;28;20041;-76
2022/03/16 10:34:28;;;;;;;40.25;22.63;;;;;;;;;;5031728;28;20041;-76
2022/03/16 10:37:22;;;;;;;34.22;20.38;;;;;;;;;;5032998;28;20092;-76
2022/03/16 10:39:52;;;;;;;34.03;22.05;;;;;;;;;;5016722;28;20050;-76
2022/03/16 10:49:12;;;;;;;32.28;21.02;;;;;;;;;;5037191;28;20443;-76
2022/03/16 10:51:39;;;;;;;33.53;21.38;;;;;;;;;;5036981;28;20556;-75
2022/03/16 10:54:23;;;;;;;34.38;21.83;;;;;;;;;;5036505;28;20157;-76
2022/03/16 10:56:51;;;;;;;34.45;21.98;;;;;;;;;;5035239;28;20389;-75
2022/03/16 10:59:19;;;;;;;37.38;22.30;;;;;;;;;;5019191;28;20049;-75
2022/03/16 11:01:48;;;;;;;37.13;22.17;;;;;;;;;;5018429;28;20575;-76
2022/03/16 11:04:21;;;;;;;35.00;23.90;;;;;;;;;;5018248;28;20088;-77
2022/03/16 11:06:49;;;;;;;34.92;22.45;;;;;;;;;;5036285;28;20069;-75
2022/03/16 11:09:17;;;;;;;35.05;22.58;;;;;;;;;;5018263;28;20041;-76
2022/03/16 11:14:33;;;;;;;44.20;22.80;;;;;;;;;;5035875;28;20041;-76
2022/03/16 11:17:02;;;;;;;33.97;21.75;;;;;;;;;;5018660;28;20519;-76
2022/03/16 11:19:31;;;;;;;42.50;25.98;;;;;;;;;;5035856;28;20046;-76
2022/03/16 11:22:11;;;;;;;37.47;22.05;;;;;;;;;;5036285;28;20463;-75
2022/03/16 11:24:42;;;;;;;35.15;22.13;;;;;;;;;;5018657;28;20064;-75
2022/03/16 11:27:15;;;;;;;41.25;23.52;;;;;;;;;;5035840;28;20037;-75
2022/03/16 11:29:49;;;;;;;37.60;22.90;;;;;;;;;;5001814;28;20045;-75
2022/03/16 11:32:18;;;;;;;37.92;23.35;;;;;;;;;;5035616;28;20559;-75
2022/03/16 11:34:58;;;;;;;37.45;24.42;;;;;;;;;;5001603;28;20049;-75
2022/03/16 11:37:35;;;;;;;39.72;24.67;;;;;;;;;;5035861;28;20072;-75
2022/03/16 11:40:09;;;;;;;49.53;29.27;;;;;;;;;;5017763;28;20203;-76
2022/03/16 11:43:04;;;;;;;46.37;25.87;;;;;;;;;;5034328;28;20091;-75
2022/03/16 11:45:37;;;;;;;36.90;23.92;;;;;;;;;;5035503;28;20290;-75
2022/03/16 11:48:23;;;;;;;42.83;25.60;;;;;;;;;;5036320;28;20049;-76
2022/03/16 11:51:09;;;;;;;37.92;24.88;;;;;;;;;;5034473;28;20041;-77
2022/03/16 11:53:57;;;;;;;39.50;24.23;;;;;;;;;;5035518;28;20381;-76
2022/03/16 11:56:29;;;;;;;39.35;24.50;;;;;;;;;;5017613;28;20408;-77
2022/03/16 11:59:02;;;;;;;39.95;25.00;;;;;;;;;;5017669;28;20064;-77
2022/03/16 12:01:31;;;;;;;42.20;27.50;;;;;;;;;;5001271;28;20048;-76
2022/03/16 12:04:11;;;;;;;43.42;26.70;;;;;;;;;;5035313;28;20049;-75
2022/03/16 12:06:51;;;;;;;44.95;26.95;;;;;;;;;;5035373;28;20041;-76
2022/03/16 12:09:22;;;;;;;47.65;29.60;;;;;;;;;;5017155;28;20049;-75
2022/03/16 12:15:02;;;;;;;51.83;30.70;;;;;;;;;;5017283;28;20049;-76
2022/03/16 12:17:30;;;;;;;51.17;31.10;;;;;;;;;;5017163;28;20076;-75
2022/03/16 12:20:09;;;;;;;53.67;33.25;;;;;;;;;;5034888;28;20041;-75
2022/03/16 12:22:48;;;;;;;60.15;35.72;;;;;;;;;;5035076;28;20067;-75
2022/03/16 12:25:30;;;;;;;51.33;33.00;;;;;;;;;;5017450;28;20080;-76
2022/03/16 12:30:46;;;;;;;51.20;31.60;;;;;;;;;;5034906;28;20113;-76
2022/03/16 12:33:22;;;;;;;50.00;31.10;;;;;;;;;;5034413;28;20539;-76
2022/03/16 12:35:54;;;;;;;56.20;33.42;;;;;;;;;;5034420;28;20081;-76
2022/03/16 12:38:23;;;;;;;58.75;37.08;;;;;;;;;;5034960;28;20049;-76
2022/03/16 12:43:37;;;;;;;48.47;30.80;;;;;;;;;;5034568;28;20111;-75
2022/03/16 12:46:11;;;;;;;51.53;31.17;;;;;;;;;;5034272;28;20041;-76
2022/03/16 12:48:39;;;;;;;48.97;30.70;;;;;;;;;;5000624;28;20136;-75
2022/03/16 12:51:06;;;;;;;50.00;28.40;;;;;;;;;;5034323;28;20121;-76
2022/03/16 12:53:44;;;;;;;44.25;27.98;;;;;;;;;;5034234;28;20037;-76
2022/03/16 12:56:18;;;;;;;36.65;25.08;;;;;;;;;;5034809;28;20439;-76
2022/03/16 12:58:52;;;;;;;38.80;25.85;;;;;;;;;;5016433;28;20084;-76
2022/03/16 13:01:20;;;;;;;43.33;24.70;;;;;;;;;;5034355;28;20069;-75
2022/03/16 13:03:49;;;;;;;42.55;26.02;;;;;;;;;;5000026;28;20046;-76
2022/03/16 13:06:18;;;;;;;49.65;27.10;;;;;;;;;;5033722;28;20051;-76
2022/03/16 13:08:50;;;;;;;33.67;22.33;;;;;;;;;;5016254;28;20095;-76
2022/03/16 13:11:24;;;;;;;29.45;18.98;;;;;;;;;;5034152;28;20042;-76
2022/03/16 13:14:06;;;;;;;29.45;17.75;;;;;;;;;;5033815;28;20042;-76
2022/03/16 13:16:37;;;;;;;23.35;15.85;;;;;;;;;;5033741;28;20068;-75
2022/03/16 13:19:06;;;;;;;23.27;15.30;;;;;;;;;;5034209;28;20072;-76
2022/03/16 13:21:34;;;;;;;26.90;15.60;;;;;;;;;;5034026;28;20056;-75
2022/03/16 13:24:06;;;;;;;24.15;15.13;;;;;;;;;;5033861;28;20128;-75
2022/03/16 13:26:34;;;;;;;41.97;25.45;;;;;;;;;;5033976;28;20396;-75
2022/03/16 13:29:04;;;;;;;22.25;13.43;;;;;;;;;;5033711;28;20480;-75
2022/03/16 13:31:32;;;;;;;19.77;12.68;;;;;;;;;;5033195;28;20092;-75
2022/03/16 13:34:04;;;;;;;24.13;13.38;;;;;;;;;;5032192;28;20048;-75
2022/03/16 13:36:39;;;;;;;21.45;13.05;;;;;;;;;;5015853;28;20496;-75
2022/03/16 13:39:30;;;;;;;24.15;14.82;;;;;;;;;;5033265;28;20045;-74
2022/03/16 13:42:05;;;;;;;23.58;15.18;;;;;;;;;;5021107;28;20063;-75
2022/03/16 13:44:40;;;;;;;22.30;15.55;;;;;;;;;;5033401;28;20037;-75
2022/03/16 13:47:07;;;;;;;24.02;15.07;;;;;;;;;;4999251;28;20488;-75
2022/03/16 13:49:39;;;;;;;19.70;13.77;;;;;;;;;;5033443;28;20527;-76
2022/03/16 13:52:08;;;;;;;25.70;15.95;;;;;;;;;;5033245;28;20563;-75
2022/03/16 13:54:36;;;;;;;29.83;19.33;;;;;;;;;;5033553;28;20045;-76
2022/03/16 13:57:14;;;;;;;29.15;19.58;;;;;;;;;;5033052;28;20489;-75
2022/03/16 13:59:42;;;;;;;37.13;23.45;;;;;;;;;;5015400;28;20164;-75
2022/03/16 14:02:38;;;;;;;37.13;23.08;;;;;;;;;;5033492;28;20050;-76
2022/03/16 14:05:17;;;;;;;47.38;27.85;;;;;;;;;;5031837;28;20551;-76
2022/03/16 14:07:49;;;;;;;47.15;27.15;;;;;;;;;;5015549;28;20095;-76
2022/03/16 14:10:24;;;;;;;57.80;33.80;;;;;;;;;;5033265;28;20124;-76
2022/03/16 14:13:01;;;;;;;57.55;33.35;;;;;;;;;;5033368;28;20136;-76
2022/03/16 14:15:29;;;;;;;64.82;39.63;;;;;;;;;;5014765;28;20060;-76
2022/03/16 14:18:07;;;;;;;53.92;33.13;;;;;;;;;;5032738;28;20045;-75
2022/03/16 14:20:37;;;;;;;46.40;31.70;;;;;;;;;;5032985;28;20053;-77
2022/03/16 14:23:07;;;;;;;39.22;24.75;;;;;;;;;;5015208;28;20049;-76
2022/03/16 14:25:34;;;;;;;35.28;23.63;;;;;;;;;;5032731;28;20071;-76
2022/03/16 14:28:05;;;;;;;35.10;22.35;;;;;;;;;;5033086;28;20034;-76
2022/03/16 14:30:35;;;;;;;32.55;21.35;;;;;;;;;;5015227;28;20040;-76
2022/03/16 14:33:04;;;;;;;34.03;21.48;;;;;;;;;;5014944;28;20056;-75
2022/03/16 14:35:34;;;;;;;33.63;19.80;;;;;;;;;;5015456;28;20168;-77
2022/03/16 14:38:05;;;;;;;107.60;60.22;;;;;;;;;;5033151;28;20045;-76
2022/03/16 14:40:34;;;;;;;43.60;27.52;;;;;;;;;;5014940;28;20107;-77
2022/03/16 14:43:27;;;;;;;28.73;18.85;;;;;;;;;;4998733;28;20419;-75
2022/03/16 14:46:20;;;;;;;157.50;62.72;;;;;;;;;;5034095;28;20124;-77
2022/03/16 14:48:53;;;;;;;27.92;16.95;;;;;;;;;;5033464;28;20087;-74
2022/03/16 14:51:21;;;;;;;24.88;15.65;;;;;;;;;;5032610;28;20037;-74
2022/03/16 14:53:52;;;;;;;20.85;13.27;;;;;;;;;;5036773;28;20065;-76
2022/03/16 14:56:38;;;;;;;23.05;14.13;;;;;;;;;;5033462;28;20471;-79
2022/03/16 14:59:24;;;;;;;28.10;15.80;;;;;;;;;;5031020;28;20496;-78
2022/03/16 15:02:18;;;;;;;23.55;15.43;;;;;;;;;;5032577;28;20124;-74
2022/03/16 15:04:48;;;;;;;35.17;22.50;;;;;;;;;;5027212;28;20100;-73
2022/03/16 15:07:16;;;;;;;22.00;14.70;;;;;;;;;;5030060;28;20072;-74
2022/03/16 15:09:44;;;;;;;43.88;23.67;;;;;;;;;;5032498;28;20491;-73
2022/03/16 15:12:15;;;;;;;36.35;21.38;;;;;;;;;;5032120;28;20041;-77
2022/03/16 15:14:46;;;;;;;62.67;31.33;;;;;;;;;;5015094;28;20053;-77
2022/03/16 15:17:21;;;;;;;79.25;34.40;;;;;;;;;;5020566;28;20070;-79
2022/03/16 15:20:15;;;;;;;54.50;24.75;;;;;;;;;;5014253;28;20559;-80
2022/03/16 15:22:48;;;;;;;79.90;42.47;;;;;;;;;;5013354;28;20038;-77
2022/03/16 15:25:24;;;;;;;31.08;22.52;;;;;;;;;;5018872;28;20089;-77
2022/03/16 15:27:55;;;;;;;28.02;18.70;;;;;;;;;;5034540;28;20064;-77
2022/03/16 15:30:30;;;;;;;32.17;20.45;;;;;;;;;;5036348;28;20472;-78
2022/03/16 15:33:04;;;;;;;39.75;23.13;;;;;;;;;;5036160;28;20107;-77
2022/03/16 15:36:03;;;;;;;40.28;22.67;;;;;;;;;;5018548;28;20579;-75
2022/03/16 15:44:41;;;;;;;51.95;21.50;;;;;;;;;;5035614;28;20045;-75
2022/03/16 15:47:37;;;;;;;57.58;24.23;;;;;;;;;;5055747;28;20112;-75
2022/03/16 15:50:30;;;;;;;54.13;26.33;;;;;;;;;;5055348;28;20041;-74
2022/03/16 15:53:23;;;;;;;65.10;28.90;;;;;;;;;;5055961;28;20048;-75
2022/03/16 15:55:52;;;;;;;48.28;24.92;;;;;;;;;;5055181;28;20044;-76
2022/03/16 15:58:38;;;;;;;57.72;28.20;;;;;;;;;;5037514;28;20037;-74
2022/03/16 16:01:34;;;;;;;56.20;30.60;;;;;;;;;;5055653;28;20046;-75
2022/03/16 16:04:32;;;;;;;46.38;28.58;;;;;;;;;;5053678;28;20095;-74